sensor_id;sensor_type;location;lat;lon;timestamp;P1;durP1;ratioP1;P2;durP2;ratioP2
11123;SDS011;5616;42.692;23.312;2023-02-01T00:00:26;3.30;;;2.70;;
11123;SDS011;5616;42.692;23.312;2023-02-01T00:02:53;3.30;;;2.67;;
11123;SDS011;5616;42.692;23.312;2023-02-01T00:05:21;4.20;;;2.97;;
11123;SDS011;5616;42.692;23.312;2023-02-01T00:07:48;4.03;;;2.83;;
11123;SDS011;5616;42.692;23.312;2023-02-01T00:10:14;3.67;;;3.07;;
11123;SDS011;5616;42.692;23.312;2023-02-01T00:12:42;3.87;;;3.10;;
11123;SDS011;5616;42.692;23.312;2023-02-01T00:15:08;3.57;;;3.07;;
11123;SDS011;5616;42.692;23.312;2023-02-01T00:17:35;4.93;;;3.20;;
11123;SDS011;5616;42.692;23.312;2023-02-01T00:20:02;4.17;;;3.10;;
11123;SDS011;5616;42.692;23.312;2023-02-01T00:22:31;3.80;;;3.00;;
11123;SDS011;5616;42.692;23.312;2023-02-01T00:24:58;3.23;;;2.93;;
11123;SDS011;5616;42.692;23.312;2023-02-01T00:27:24;5.03;;;3.00;;
11123;SDS011;5616;42.692;23.312;2023-02-01T00:29:51;3.17;;;2.90;;
11123;SDS011;5616;42.692;23.312;2023-02-01T00:32:20;3.47;;;3.17;;
11123;SDS011;5616;42.692;23.312;2023-02-01T00:34:47;3.23;;;2.93;;
11123;SDS011;5616;42.692;23.312;2023-02-01T00:37:14;3.40;;;3.10;;
11123;SDS011;5616;42.692;23.312;2023-02-01T00:39:42;3.13;;;2.60;;
11123;SDS011;5616;42.692;23.312;2023-02-01T00:42:08;3.40;;;3.10;;
11123;SDS011;5616;42.692;23.312;2023-02-01T00:44:36;3.43;;;3.10;;
11123;SDS011;5616;42.692;23.312;2023-02-01T00:47:02;3.20;;;2.90;;
11123;SDS011;5616;42.692;23.312;2023-02-01T00:49:29;3.20;;;2.80;;
11123;SDS011;5616;42.692;23.312;2023-02-01T00:51:56;2.77;;;2.47;;
11123;SDS011;5616;42.692;23.312;2023-02-01T00:54:23;3.30;;;3.00;;
11123;SDS011;5616;42.692;23.312;2023-02-01T00:56:52;3.73;;;2.93;;
11123;SDS011;5616;42.692;23.312;2023-02-01T00:59:18;3.67;;;2.70;;
11123;SDS011;5616;42.692;23.312;2023-02-01T01:01:45;3.20;;;2.90;;
11123;SDS011;5616;42.692;23.312;2023-02-01T01:04:12;3.20;;;2.90;;
11123;SDS011;5616;42.692;23.312;2023-02-01T01:06:39;5.20;;;3.00;;
11123;SDS011;5616;42.692;23.312;2023-02-01T01:09:07;3.20;;;2.53;;
11123;SDS011;5616;42.692;23.312;2023-02-01T01:11:34;3.10;;;2.60;;
11123;SDS011;5616;42.692;23.312;2023-02-01T01:14:08;2.67;;;2.47;;
11123;SDS011;5616;42.692;23.312;2023-02-01T01:16:36;4.33;;;2.53;;
11123;SDS011;5616;42.692;23.312;2023-02-01T01:19:03;4.47;;;2.40;;
11123;SDS011;5616;42.692;23.312;2023-02-01T01:21:30;3.33;;;2.63;;
11123;SDS011;5616;42.692;23.312;2023-02-01T01:23:57;3.73;;;2.40;;
11123;SDS011;5616;42.692;23.312;2023-02-01T01:26:25;3.27;;;2.60;;
11123;SDS011;5616;42.692;23.312;2023-02-01T01:28:54;10.37;;;2.53;;
11123;SDS011;5616;42.692;23.312;2023-02-01T01:31:23;5.00;;;2.20;;
11123;SDS011;5616;42.692;23.312;2023-02-01T01:33:52;4.17;;;2.30;;
11123;SDS011;5616;42.692;23.312;2023-02-01T01:36:20;2.57;;;2.37;;
11123;SDS011;5616;42.692;23.312;2023-02-01T01:38:47;2.73;;;2.50;;
11123;SDS011;5616;42.692;23.312;2023-02-01T01:41:16;2.60;;;2.07;;
11123;SDS011;5616;42.692;23.312;2023-02-01T01:43:48;3.53;;;2.40;;
11123;SDS011;5616;42.692;23.312;2023-02-01T01:46:23;2.47;;;2.10;;
11123;SDS011;5616;42.692;23.312;2023-02-01T01:48:53;2.30;;;1.90;;
11123;SDS011;5616;42.692;23.312;2023-02-01T01:51:26;3.43;;;2.17;;
11123;SDS011;5616;42.692;23.312;2023-02-01T01:53:58;2.93;;;2.23;;
11123;SDS011;5616;42.692;23.312;2023-02-01T01:56:29;2.37;;;2.10;;
11123;SDS011;5616;42.692;23.312;2023-02-01T01:58:58;3.40;;;1.93;;
11123;SDS011;5616;42.692;23.312;2023-02-01T02:01:27;3.37;;;2.53;;
11123;SDS011;5616;42.692;23.312;2023-02-01T02:03:54;3.63;;;1.97;;
11123;SDS011;5616;42.692;23.312;2023-02-01T02:06:26;5.10;;;2.23;;
11123;SDS011;5616;42.692;23.312;2023-02-01T02:08:59;3.77;;;2.30;;
11123;SDS011;5616;42.692;23.312;2023-02-01T02:11:26;3.47;;;2.17;;
11123;SDS011;5616;42.692;23.312;2023-02-01T02:13:53;1.90;;;1.80;;
11123;SDS011;5616;42.692;23.312;2023-02-01T02:19:28;2.90;;;2.23;;
11123;SDS011;5616;42.692;23.312;2023-02-01T02:22:28;2.60;;;2.07;;
11123;SDS011;5616;42.692;23.312;2023-02-01T02:25:18;2.83;;;2.23;;
11123;SDS011;5616;42.692;23.312;2023-02-01T02:27:58;2.40;;;2.10;;
11123;SDS011;5616;42.692;23.312;2023-02-01T02:30:36;3.20;;;2.20;;
11123;SDS011;5616;42.692;23.312;2023-02-01T02:33:24;3.40;;;2.20;;
11123;SDS011;5616;42.692;23.312;2023-02-01T02:36:10;3.03;;;2.43;;
11123;SDS011;5616;42.692;23.312;2023-02-01T02:38:46;3.50;;;2.40;;
11123;SDS011;5616;42.692;23.312;2023-02-01T02:41:19;2.60;;;2.40;;
11123;SDS011;5616;42.692;23.312;2023-02-01T02:44:13;3.30;;;2.23;;
11123;SDS011;5616;42.692;23.312;2023-02-01T02:47:13;3.77;;;2.07;;
11123;SDS011;5616;42.692;23.312;2023-02-01T02:49:54;4.03;;;2.33;;
11123;SDS011;5616;42.692;23.312;2023-02-01T02:52:50;3.40;;;1.80;;
11123;SDS011;5616;42.692;23.312;2023-02-01T02:55:37;2.43;;;1.80;;
11123;SDS011;5616;42.692;23.312;2023-02-01T02:58:06;3.43;;;2.33;;
11123;SDS011;5616;42.692;23.312;2023-02-01T03:00:52;3.90;;;2.40;;
11123;SDS011;5616;42.692;23.312;2023-02-01T03:03:39;5.17;;;2.87;;
11123;SDS011;5616;42.692;23.312;2023-02-01T03:06:25;4.70;;;3.50;;
11123;SDS011;5616;42.692;23.312;2023-02-01T03:08:54;3.23;;;2.73;;
11123;SDS011;5616;42.692;23.312;2023-02-01T03:11:24;3.03;;;2.33;;
11123;SDS011;5616;42.692;23.312;2023-02-01T03:14:14;6.87;;;2.50;;
11123;SDS011;5616;42.692;23.312;2023-02-01T03:16:43;3.50;;;2.30;;
11123;SDS011;5616;42.692;23.312;2023-02-01T03:19:17;3.37;;;2.37;;
11123;SDS011;5616;42.692;23.312;2023-02-01T03:21:50;2.43;;;1.90;;
11123;SDS011;5616;42.692;23.312;2023-02-01T03:24:20;2.30;;;2.10;;
11123;SDS011;5616;42.692;23.312;2023-02-01T03:27:01;3.43;;;2.40;;
11123;SDS011;5616;42.692;23.312;2023-02-01T03:29:33;3.20;;;2.10;;
11123;SDS011;5616;42.692;23.312;2023-02-01T03:32:04;2.63;;;2.27;;
11123;SDS011;5616;42.692;23.312;2023-02-01T03:34:32;4.00;;;2.30;;
11123;SDS011;5616;42.692;23.312;2023-02-01T03:37:01;3.17;;;2.13;;
11123;SDS011;5616;42.692;23.312;2023-02-01T03:39:32;2.40;;;2.10;;
11123;SDS011;5616;42.692;23.312;2023-02-01T03:42:04;3.83;;;1.90;;
11123;SDS011;5616;42.692;23.312;2023-02-01T03:44:36;2.13;;;1.83;;
11123;SDS011;5616;42.692;23.312;2023-02-01T03:47:08;4.00;;;1.90;;
11123;SDS011;5616;42.692;23.312;2023-02-01T03:49:41;3.00;;;1.90;;
11123;SDS011;5616;42.692;23.312;2023-02-01T03:52:12;2.30;;;2.10;;
11123;SDS011;5616;42.692;23.312;2023-02-01T03:54:41;2.80;;;2.23;;
11123;SDS011;5616;42.692;23.312;2023-02-01T03:57:11;2.10;;;1.90;;
11123;SDS011;5616;42.692;23.312;2023-02-01T03:59:41;6.97;;;1.80;;
11123;SDS011;5616;42.692;23.312;2023-02-01T04:02:10;3.50;;;2.00;;
11123;SDS011;5616;42.692;23.312;2023-02-01T04:04:38;2.73;;;1.80;;
11123;SDS011;5616;42.692;23.312;2023-02-01T04:07:05;2.60;;;1.90;;
11123;SDS011;5616;42.692;23.312;2023-02-01T04:09:33;3.37;;;1.87;;
11123;SDS011;5616;42.692;23.312;2023-02-01T04:12:00;2.20;;;2.00;;
11123;SDS011;5616;42.692;23.312;2023-02-01T04:14:27;4.47;;;2.07;;
11123;SDS011;5616;42.692;23.312;2023-02-01T04:16:54;2.67;;;2.10;;
11123;SDS011;5616;42.692;23.312;2023-02-01T04:19:21;2.87;;;2.20;;
11123;SDS011;5616;42.692;23.312;2023-02-01T04:21:47;2.90;;;2.50;;
11123;SDS011;5616;42.692;23.312;2023-02-01T04:24:14;3.00;;;2.13;;
11123;SDS011;5616;42.692;23.312;2023-02-01T04:26:42;5.00;;;2.70;;
11123;SDS011;5616;42.692;23.312;2023-02-01T04:29:09;2.50;;;2.30;;
11123;SDS011;5616;42.692;23.312;2023-02-01T04:31:36;3.03;;;2.50;;
11123;SDS011;5616;42.692;23.312;2023-02-01T04:34:03;2.77;;;2.40;;
11123;SDS011;5616;42.692;23.312;2023-02-01T04:36:30;3.10;;;2.37;;
11123;SDS011;5616;42.692;23.312;2023-02-01T04:38:56;4.50;;;2.97;;
11123;SDS011;5616;42.692;23.312;2023-02-01T04:41:23;3.13;;;2.40;;
11123;SDS011;5616;42.692;23.312;2023-02-01T04:43:51;5.67;;;2.80;;
11123;SDS011;5616;42.692;23.312;2023-02-01T04:46:18;7.53;;;2.60;;
11123;SDS011;5616;42.692;23.312;2023-02-01T04:48:45;3.33;;;2.60;;
11123;SDS011;5616;42.692;23.312;2023-02-01T04:51:12;3.83;;;2.90;;
11123;SDS011;5616;42.692;23.312;2023-02-01T04:53:40;4.90;;;3.80;;
11123;SDS011;5616;42.692;23.312;2023-02-01T04:56:07;4.70;;;3.73;;
11123;SDS011;5616;42.692;23.312;2023-02-01T04:58:34;4.70;;;3.57;;
11123;SDS011;5616;42.692;23.312;2023-02-01T05:01:03;4.13;;;3.23;;
11123;SDS011;5616;42.692;23.312;2023-02-01T05:03:30;6.80;;;3.30;;
11123;SDS011;5616;42.692;23.312;2023-02-01T05:05:57;4.23;;;3.47;;
11123;SDS011;5616;42.692;23.312;2023-02-01T05:08:24;4.30;;;3.30;;
11123;SDS011;5616;42.692;23.312;2023-02-01T05:10:52;5.13;;;3.13;;
11123;SDS011;5616;42.692;23.312;2023-02-01T05:13:18;5.27;;;3.20;;
11123;SDS011;5616;42.692;23.312;2023-02-01T05:16:04;4.30;;;2.90;;
11123;SDS011;5616;42.692;23.312;2023-02-01T05:18:32;5.07;;;3.23;;
11123;SDS011;5616;42.692;23.312;2023-02-01T05:20:58;3.60;;;2.50;;
11123;SDS011;5616;42.692;23.312;2023-02-01T05:23:26;5.10;;;2.80;;
11123;SDS011;5616;42.692;23.312;2023-02-01T05:25:57;4.90;;;2.90;;
11123;SDS011;5616;42.692;23.312;2023-02-01T05:28:24;4.20;;;2.83;;
11123;SDS011;5616;42.692;23.312;2023-02-01T05:30:51;5.97;;;3.10;;
11123;SDS011;5616;42.692;23.312;2023-02-01T05:33:20;5.17;;;3.37;;
11123;SDS011;5616;42.692;23.312;2023-02-01T05:35:47;4.13;;;3.10;;
11123;SDS011;5616;42.692;23.312;2023-02-01T05:38:15;5.90;;;3.20;;
11123;SDS011;5616;42.692;23.312;2023-02-01T05:40:42;3.60;;;2.93;;
11123;SDS011;5616;42.692;23.312;2023-02-01T05:43:14;3.37;;;2.80;;
11123;SDS011;5616;42.692;23.312;2023-02-01T05:45:41;3.63;;;3.27;;
11123;SDS011;5616;42.692;23.312;2023-02-01T05:48:08;5.67;;;3.40;;
11123;SDS011;5616;42.692;23.312;2023-02-01T05:50:36;3.90;;;3.30;;
11123;SDS011;5616;42.692;23.312;2023-02-01T05:53:07;3.90;;;2.93;;
11123;SDS011;5616;42.692;23.312;2023-02-01T05:55:34;3.87;;;2.90;;
11123;SDS011;5616;42.692;23.312;2023-02-01T05:58:02;3.70;;;2.60;;
11123;SDS011;5616;42.692;23.312;2023-02-01T06:00:29;5.63;;;3.00;;
11123;SDS011;5616;42.692;23.312;2023-02-01T06:02:55;5.93;;;2.43;;
11123;SDS011;5616;42.692;23.312;2023-02-01T06:05:22;4.93;;;2.90;;
11123;SDS011;5616;42.692;23.312;2023-02-01T06:07:51;5.73;;;2.90;;
11123;SDS011;5616;42.692;23.312;2023-02-01T06:10:18;6.05;;;3.28;;
11123;SDS011;5616;42.692;23.312;2023-02-01T06:12:45;5.50;;;3.37;;
11123;SDS011;5616;42.692;23.312;2023-02-01T06:15:12;6.53;;;3.33;;
11123;SDS011;5616;42.692;23.312;2023-02-01T06:17:40;5.90;;;2.90;;
11123;SDS011;5616;42.692;23.312;2023-02-01T06:20:09;4.47;;;3.30;;
11123;SDS011;5616;42.692;23.312;2023-02-01T06:22:37;3.37;;;2.80;;
11123;SDS011;5616;42.692;23.312;2023-02-01T06:25:06;7.47;;;3.30;;
11123;SDS011;5616;42.692;23.312;2023-02-01T06:27:35;5.17;;;3.00;;
11123;SDS011;5616;42.692;23.312;2023-02-01T06:30:02;7.10;;;3.20;;
11123;SDS011;5616;42.692;23.312;2023-02-01T06:32:32;8.53;;;3.10;;
11123;SDS011;5616;42.692;23.312;2023-02-01T06:34:59;5.37;;;2.97;;
11123;SDS011;5616;42.692;23.312;2023-02-01T06:37:26;4.57;;;2.77;;
11123;SDS011;5616;42.692;23.312;2023-02-01T06:39:54;5.03;;;2.90;;
11123;SDS011;5616;42.692;23.312;2023-02-01T06:42:22;5.17;;;2.53;;
11123;SDS011;5616;42.692;23.312;2023-02-01T06:44:49;3.57;;;2.77;;
11123;SDS011;5616;42.692;23.312;2023-02-01T06:47:16;6.70;;;3.10;;
11123;SDS011;5616;42.692;23.312;2023-02-01T06:49:43;5.13;;;3.33;;
11123;SDS011;5616;42.692;23.312;2023-02-01T06:52:10;4.23;;;2.87;;
11123;SDS011;5616;42.692;23.312;2023-02-01T06:54:36;4.67;;;3.10;;
11123;SDS011;5616;42.692;23.312;2023-02-01T06:57:03;5.70;;;2.73;;
11123;SDS011;5616;42.692;23.312;2023-02-01T06:59:31;4.37;;;2.60;;
11123;SDS011;5616;42.692;23.312;2023-02-01T07:01:58;5.97;;;3.07;;
11123;SDS011;5616;42.692;23.312;2023-02-01T07:04:25;6.10;;;3.17;;
11123;SDS011;5616;42.692;23.312;2023-02-01T07:06:52;7.10;;;3.47;;
11123;SDS011;5616;42.692;23.312;2023-02-01T07:09:19;5.80;;;3.63;;
11123;SDS011;5616;42.692;23.312;2023-02-01T07:11:45;6.37;;;3.10;;
11123;SDS011;5616;42.692;23.312;2023-02-01T07:14:12;5.30;;;3.40;;
11123;SDS011;5616;42.692;23.312;2023-02-01T07:16:41;7.50;;;3.03;;
11123;SDS011;5616;42.692;23.312;2023-02-01T07:19:07;4.53;;;3.20;;
11123;SDS011;5616;42.692;23.312;2023-02-01T07:21:34;4.93;;;3.50;;
11123;SDS011;5616;42.692;23.312;2023-02-01T07:24:01;5.40;;;2.63;;
11123;SDS011;5616;42.692;23.312;2023-02-01T07:26:28;5.13;;;2.80;;
11123;SDS011;5616;42.692;23.312;2023-02-01T07:28:54;4.03;;;2.20;;
11123;SDS011;5616;42.692;23.312;2023-02-01T07:31:22;3.77;;;2.00;;
11123;SDS011;5616;42.692;23.312;2023-02-01T07:33:52;4.57;;;2.57;;
11123;SDS011;5616;42.692;23.312;2023-02-01T07:36:21;5.57;;;2.47;;
11123;SDS011;5616;42.692;23.312;2023-02-01T07:38:48;5.73;;;2.63;;
11123;SDS011;5616;42.692;23.312;2023-02-01T07:41:16;5.67;;;3.07;;
11123;SDS011;5616;42.692;23.312;2023-02-01T07:43:43;2.87;;;2.37;;
11123;SDS011;5616;42.692;23.312;2023-02-01T07:46:10;7.53;;;2.93;;
11123;SDS011;5616;42.692;23.312;2023-02-01T07:48:38;4.10;;;2.70;;
11123;SDS011;5616;42.692;23.312;2023-02-01T07:51:08;9.93;;;3.17;;
11123;SDS011;5616;42.692;23.312;2023-02-01T07:53:36;4.17;;;2.50;;
11123;SDS011;5616;42.692;23.312;2023-02-01T07:56:08;5.93;;;3.40;;
11123;SDS011;5616;42.692;23.312;2023-02-01T07:58:38;5.43;;;3.13;;
11123;SDS011;5616;42.692;23.312;2023-02-01T08:01:05;6.20;;;2.67;;
11123;SDS011;5616;42.692;23.312;2023-02-01T08:03:50;4.57;;;2.77;;
11123;SDS011;5616;42.692;23.312;2023-02-01T08:06:19;4.07;;;2.73;;
11123;SDS011;5616;42.692;23.312;2023-02-01T08:08:46;7.03;;;3.00;;
11123;SDS011;5616;42.692;23.312;2023-02-01T08:11:13;8.03;;;2.93;;
11123;SDS011;5616;42.692;23.312;2023-02-01T08:13:40;4.10;;;2.67;;
11123;SDS011;5616;42.692;23.312;2023-02-01T08:16:08;4.90;;;2.20;;
11123;SDS011;5616;42.692;23.312;2023-02-01T08:18:36;5.87;;;2.83;;
11123;SDS011;5616;42.692;23.312;2023-02-01T08:21:04;4.70;;;2.40;;
11123;SDS011;5616;42.692;23.312;2023-02-01T08:23:33;6.07;;;3.47;;
11123;SDS011;5616;42.692;23.312;2023-02-01T08:26:04;7.13;;;3.37;;
11123;SDS011;5616;42.692;23.312;2023-02-01T08:28:31;5.73;;;2.57;;
11123;SDS011;5616;42.692;23.312;2023-02-01T08:30:58;6.20;;;2.63;;
11123;SDS011;5616;42.692;23.312;2023-02-01T08:33:29;3.30;;;2.20;;
11123;SDS011;5616;42.692;23.312;2023-02-01T08:35:56;4.07;;;2.53;;
11123;SDS011;5616;42.692;23.312;2023-02-01T08:38:23;3.90;;;2.50;;
11123;SDS011;5616;42.692;23.312;2023-02-01T08:40:51;3.00;;;2.40;;
11123;SDS011;5616;42.692;23.312;2023-02-01T08:43:18;3.97;;;2.90;;
11123;SDS011;5616;42.692;23.312;2023-02-01T08:45:45;8.50;;;2.97;;
11123;SDS011;5616;42.692;23.312;2023-02-01T08:48:12;5.37;;;3.50;;
11123;SDS011;5616;42.692;23.312;2023-02-01T08:50:39;5.10;;;2.90;;
11123;SDS011;5616;42.692;23.312;2023-02-01T08:53:06;5.83;;;2.90;;
11123;SDS011;5616;42.692;23.312;2023-02-01T08:55:32;7.10;;;3.83;;
11123;SDS011;5616;42.692;23.312;2023-02-01T08:58:00;3.93;;;2.30;;
11123;SDS011;5616;42.692;23.312;2023-02-01T09:00:27;5.10;;;2.50;;
11123;SDS011;5616;42.692;23.312;2023-02-01T09:02:55;5.67;;;2.50;;
11123;SDS011;5616;42.692;23.312;2023-02-01T09:05:21;8.53;;;3.00;;
11123;SDS011;5616;42.692;23.312;2023-02-01T09:07:51;8.20;;;2.87;;
11123;SDS011;5616;42.692;23.312;2023-02-01T09:10:18;4.03;;;2.30;;
11123;SDS011;5616;42.692;23.312;2023-02-01T09:12:45;4.93;;;2.37;;
11123;SDS011;5616;42.692;23.312;2023-02-01T09:15:13;7.47;;;2.60;;
11123;SDS011;5616;42.692;23.312;2023-02-01T09:17:40;3.33;;;2.10;;
11123;SDS011;5616;42.692;23.312;2023-02-01T09:20:09;3.37;;;2.10;;
11123;SDS011;5616;42.692;23.312;2023-02-01T09:22:36;4.03;;;2.10;;
11123;SDS011;5616;42.692;23.312;2023-02-01T09:25:03;5.33;;;2.27;;
11123;SDS011;5616;42.692;23.312;2023-02-01T09:27:31;2.20;;;2.00;;
11123;SDS011;5616;42.692;23.312;2023-02-01T09:29:58;5.00;;;2.37;;
11123;SDS011;5616;42.692;23.312;2023-02-01T09:32:26;2.97;;;2.03;;
11123;SDS011;5616;42.692;23.312;2023-02-01T09:34:53;2.77;;;1.40;;
11123;SDS011;5616;42.692;23.312;2023-02-01T09:37:19;2.40;;;1.80;;
11123;SDS011;5616;42.692;23.312;2023-02-01T09:39:46;3.57;;;1.80;;
11123;SDS011;5616;42.692;23.312;2023-02-01T09:42:21;3.17;;;2.17;;
11123;SDS011;5616;42.692;23.312;2023-02-01T09:45:10;3.47;;;2.00;;
11123;SDS011;5616;42.692;23.312;2023-02-01T09:47:47;5.07;;;1.77;;
11123;SDS011;5616;42.692;23.312;2023-02-01T09:50:18;2.40;;;1.80;;
11123;SDS011;5616;42.692;23.312;2023-02-01T09:52:51;2.93;;;1.67;;
11123;SDS011;5616;42.692;23.312;2023-02-01T09:55:23;3.73;;;2.30;;
11123;SDS011;5616;42.692;23.312;2023-02-01T09:57:58;2.80;;;1.97;;
11123;SDS011;5616;42.692;23.312;2023-02-01T10:00:28;6.03;;;2.27;;
11123;SDS011;5616;42.692;23.312;2023-02-01T10:03:01;3.47;;;2.10;;
11123;SDS011;5616;42.692;23.312;2023-02-01T10:05:34;3.37;;;1.90;;
11123;SDS011;5616;42.692;23.312;2023-02-01T10:08:13;2.23;;;1.90;;
11123;SDS011;5616;42.692;23.312;2023-02-01T10:10:52;6.73;;;2.20;;
11123;SDS011;5616;42.692;23.312;2023-02-01T10:13:31;4.50;;;2.10;;
11123;SDS011;5616;42.692;23.312;2023-02-01T10:16:12;2.93;;;2.00;;
11123;SDS011;5616;42.692;23.312;2023-02-01T10:19:00;4.20;;;2.20;;
11123;SDS011;5616;42.692;23.312;2023-02-01T10:21:46;6.07;;;3.37;;
11123;SDS011;5616;42.692;23.312;2023-02-01T10:24:34;5.43;;;3.13;;
11123;SDS011;5616;42.692;23.312;2023-02-01T10:27:12;5.60;;;2.43;;
11123;SDS011;5616;42.692;23.312;2023-02-01T10:29:41;5.47;;;2.80;;
11123;SDS011;5616;42.692;23.312;2023-02-01T10:32:15;5.87;;;2.40;;
11123;SDS011;5616;42.692;23.312;2023-02-01T10:34:46;4.53;;;2.50;;
11123;SDS011;5616;42.692;23.312;2023-02-01T10:37:20;4.30;;;2.00;;
11123;SDS011;5616;42.692;23.312;2023-02-01T10:39:52;4.13;;;2.20;;
11123;SDS011;5616;42.692;23.312;2023-02-01T10:42:22;4.70;;;2.40;;
11123;SDS011;5616;42.692;23.312;2023-02-01T10:44:51;3.80;;;2.20;;
11123;SDS011;5616;42.692;23.312;2023-02-01T10:47:20;5.03;;;2.10;;
11123;SDS011;5616;42.692;23.312;2023-02-01T10:49:49;2.50;;;2.00;;
11123;SDS011;5616;42.692;23.312;2023-02-01T10:52:24;4.47;;;2.30;;
11123;SDS011;5616;42.692;23.312;2023-02-01T10:58:14;4.40;;;2.10;;
11123;SDS011;5616;42.692;23.312;2023-02-01T11:00:44;3.27;;;1.83;;
11123;SDS011;5616;42.692;23.312;2023-02-01T11:03:20;2.77;;;1.80;;
11123;SDS011;5616;42.692;23.312;2023-02-01T11:05:55;3.77;;;2.40;;
11123;SDS011;5616;42.692;23.312;2023-02-01T11:08:22;3.53;;;2.20;;
11123;SDS011;5616;42.692;23.312;2023-02-01T11:10:56;4.00;;;2.63;;
11123;SDS011;5616;42.692;23.312;2023-02-01T11:13:28;3.30;;;2.23;;
11123;SDS011;5616;42.692;23.312;2023-02-01T11:15:58;3.63;;;1.90;;
11123;SDS011;5616;42.692;23.312;2023-02-01T11:18:29;3.33;;;1.70;;
11123;SDS011;5616;42.692;23.312;2023-02-01T11:20:59;2.97;;;1.83;;
11123;SDS011;5616;42.692;23.312;2023-02-01T11:23:27;1.40;;;1.30;;
11123;SDS011;5616;42.692;23.312;2023-02-01T11:25:59;4.70;;;1.80;;
11123;SDS011;5616;42.692;23.312;2023-02-01T11:28:29;1.73;;;1.60;;
11123;SDS011;5616;42.692;23.312;2023-02-01T11:30:59;2.60;;;1.53;;
11123;SDS011;5616;42.692;23.312;2023-02-01T11:33:29;2.67;;;1.43;;
11123;SDS011;5616;42.692;23.312;2023-02-01T11:36:01;3.13;;;1.40;;
11123;SDS011;5616;42.692;23.312;2023-02-01T11:38:34;2.38;;;1.60;;
11123;SDS011;5616;42.692;23.312;2023-02-01T11:41:11;5.33;;;1.77;;
11123;SDS011;5616;42.692;23.312;2023-02-01T11:43:50;5.30;;;1.80;;
11123;SDS011;5616;42.692;23.312;2023-02-01T11:46:18;3.23;;;1.43;;
11123;SDS011;5616;42.692;23.312;2023-02-01T11:48:50;2.33;;;1.80;;
11123;SDS011;5616;42.692;23.312;2023-02-01T11:51:21;5.20;;;1.73;;
11123;SDS011;5616;42.692;23.312;2023-02-01T11:54:07;2.90;;;1.70;;
11123;SDS011;5616;42.692;23.312;2023-02-01T11:56:44;4.77;;;2.33;;
11123;SDS011;5616;42.692;23.312;2023-02-01T11:59:28;2.30;;;1.70;;
11123;SDS011;5616;42.692;23.312;2023-02-01T12:02:24;2.83;;;1.70;;
11123;SDS011;5616;42.692;23.312;2023-02-01T12:05:27;2.17;;;1.60;;
11123;SDS011;5616;42.692;23.312;2023-02-01T12:08:13;3.53;;;1.50;;
11123;SDS011;5616;42.692;23.312;2023-02-01T12:10:51;1.60;;;1.47;;
11123;SDS011;5616;42.692;23.312;2023-02-01T12:13:30;2.10;;;1.40;;
11123;SDS011;5616;42.692;23.312;2023-02-01T12:16:08;1.70;;;1.30;;
11123;SDS011;5616;42.692;23.312;2023-02-01T12:18:49;3.00;;;1.83;;
11123;SDS011;5616;42.692;23.312;2023-02-01T12:21:31;3.60;;;1.60;;
11123;SDS011;5616;42.692;23.312;2023-02-01T12:27:33;3.87;;;2.10;;
11123;SDS011;5616;42.692;23.312;2023-02-01T12:30:18;1.93;;;1.60;;
11123;SDS011;5616;42.692;23.312;2023-02-01T12:33:01;2.13;;;1.57;;
11123;SDS011;5616;42.692;23.312;2023-02-01T12:38:43;1.83;;;1.40;;
11123;SDS011;5616;42.692;23.312;2023-02-01T12:41:32;4.07;;;1.63;;
11123;SDS011;5616;42.692;23.312;2023-02-01T12:44:16;1.77;;;1.43;;
11123;SDS011;5616;42.692;23.312;2023-02-01T12:46:51;4.87;;;1.67;;
11123;SDS011;5616;42.692;23.312;2023-02-01T12:49:22;4.57;;;1.17;;
11123;SDS011;5616;42.692;23.312;2023-02-01T12:51:57;1.67;;;1.20;;
11123;SDS011;5616;42.692;23.312;2023-02-01T12:54:29;2.17;;;1.60;;
11123;SDS011;5616;42.692;23.312;2023-02-01T12:57:04;2.80;;;1.53;;
11123;SDS011;5616;42.692;23.312;2023-02-01T12:59:36;1.57;;;1.30;;
11123;SDS011;5616;42.692;23.312;2023-02-01T13:02:10;2.70;;;1.50;;
11123;SDS011;5616;42.692;23.312;2023-02-01T13:04:47;3.33;;;1.87;;
11123;SDS011;5616;42.692;23.312;2023-02-01T13:07:24;3.17;;;1.67;;
11123;SDS011;5616;42.692;23.312;2023-02-01T13:09:56;3.20;;;1.07;;
11123;SDS011;5616;42.692;23.312;2023-02-01T13:12:28;1.97;;;1.40;;
11123;SDS011;5616;42.692;23.312;2023-02-01T13:15:00;2.17;;;1.53;;
11123;SDS011;5616;42.692;23.312;2023-02-01T13:17:32;1.60;;;1.40;;
11123;SDS011;5616;42.692;23.312;2023-02-01T13:20:02;2.47;;;1.30;;
11123;SDS011;5616;42.692;23.312;2023-02-01T13:22:32;1.60;;;1.30;;
11123;SDS011;5616;42.692;23.312;2023-02-01T13:25:04;1.90;;;1.47;;
11123;SDS011;5616;42.692;23.312;2023-02-01T13:27:40;2.67;;;1.30;;
11123;SDS011;5616;42.692;23.312;2023-02-01T13:30:10;1.67;;;1.40;;
11123;SDS011;5616;42.692;23.312;2023-02-01T13:32:54;3.10;;;1.73;;
11123;SDS011;5616;42.692;23.312;2023-02-01T13:35:50;2.10;;;1.40;;
11123;SDS011;5616;42.692;23.312;2023-02-01T13:38:45;1.70;;;1.40;;
11123;SDS011;5616;42.692;23.312;2023-02-01T13:41:39;2.27;;;1.50;;
11123;SDS011;5616;42.692;23.312;2023-02-01T13:44:12;4.93;;;1.47;;
11123;SDS011;5616;42.692;23.312;2023-02-01T13:46:46;3.20;;;1.50;;
11123;SDS011;5616;42.692;23.312;2023-02-01T13:49:18;1.90;;;1.23;;
11123;SDS011;5616;42.692;23.312;2023-02-01T13:51:49;2.57;;;1.57;;
11123;SDS011;5616;42.692;23.312;2023-02-01T13:54:27;1.97;;;1.67;;
11123;SDS011;5616;42.692;23.312;2023-02-01T13:56:56;2.60;;;1.70;;
11123;SDS011;5616;42.692;23.312;2023-02-01T14:02:51;2.33;;;1.50;;
11123;SDS011;5616;42.692;23.312;2023-02-01T14:08:37;2.03;;;1.53;;
11123;SDS011;5616;42.692;23.312;2023-02-01T14:11:33;2.60;;;1.53;;
11123;SDS011;5616;42.692;23.312;2023-02-01T14:23:23;3.43;;;2.30;;
11123;SDS011;5616;42.692;23.312;2023-02-01T14:28:47;2.43;;;1.50;;
11123;SDS011;5616;42.692;23.312;2023-02-01T14:34:29;2.73;;;2.03;;
11123;SDS011;5616;42.692;23.312;2023-02-01T14:37:03;2.40;;;1.97;;
11123;SDS011;5616;42.692;23.312;2023-02-01T14:39:34;3.23;;;2.20;;
11123;SDS011;5616;42.692;23.312;2023-02-01T14:42:20;3.97;;;2.97;;
11123;SDS011;5616;42.692;23.312;2023-02-01T14:44:51;3.30;;;2.70;;
11123;SDS011;5616;42.692;23.312;2023-02-01T14:47:28;3.50;;;2.63;;
11123;SDS011;5616;42.692;23.312;2023-02-01T14:53:03;3.93;;;2.83;;
11123;SDS011;5616;42.692;23.312;2023-02-01T14:55:40;2.83;;;2.00;;
11123;SDS011;5616;42.692;23.312;2023-02-01T14:58:13;3.03;;;1.93;;
11123;SDS011;5616;42.692;23.312;2023-02-01T15:00:48;4.97;;;2.40;;
11123;SDS011;5616;42.692;23.312;2023-02-01T15:03:34;3.97;;;2.70;;
11123;SDS011;5616;42.692;23.312;2023-02-01T15:06:18;5.23;;;2.40;;
11123;SDS011;5616;42.692;23.312;2023-02-01T15:08:52;4.57;;;2.80;;
11123;SDS011;5616;42.692;23.312;2023-02-01T15:11:21;4.07;;;2.63;;
11123;SDS011;5616;42.692;23.312;2023-02-01T15:13:48;6.40;;;3.30;;
11123;SDS011;5616;42.692;23.312;2023-02-01T15:16:19;4.20;;;3.03;;
11123;SDS011;5616;42.692;23.312;2023-02-01T15:18:47;4.60;;;3.03;;
11123;SDS011;5616;42.692;23.312;2023-02-01T15:21:16;4.33;;;3.13;;
11123;SDS011;5616;42.692;23.312;2023-02-01T15:23:44;4.38;;;2.90;;
11123;SDS011;5616;42.692;23.312;2023-02-01T15:26:26;7.77;;;2.43;;
11123;SDS011;5616;42.692;23.312;2023-02-01T15:28:55;3.17;;;2.37;;
11123;SDS011;5616;42.692;23.312;2023-02-01T15:31:33;5.93;;;3.00;;
11123;SDS011;5616;42.692;23.312;2023-02-01T15:34:01;3.30;;;2.57;;
11123;SDS011;5616;42.692;23.312;2023-02-01T15:36:29;4.37;;;2.60;;
11123;SDS011;5616;42.692;23.312;2023-02-01T15:39:14;5.07;;;2.97;;
11123;SDS011;5616;42.692;23.312;2023-02-01T15:41:48;6.53;;;3.80;;
11123;SDS011;5616;42.692;23.312;2023-02-01T15:44:18;4.50;;;3.13;;
11123;SDS011;5616;42.692;23.312;2023-02-01T15:46:48;8.40;;;3.50;;
11123;SDS011;5616;42.692;23.312;2023-02-01T15:49:21;6.93;;;2.80;;
11123;SDS011;5616;42.692;23.312;2023-02-01T15:51:54;4.57;;;3.00;;